Carefree, Arizona
Current Conditions -  °F | °C
As of 4:53 AM on Friday 28 Nov 2014 (Local Time) from KDVT Reporting Station
Clear Clear  
Wind Chill: 58°   Ceiling: Unl
Heat Index: 58°   Visibility: 10mi
Dew Point: 19°   Wind: 6mph
Humidity: 22%   Direction: 30°NNE
Pressure: 30.04"   Gusts: NA
Location:  33.82°N, 111.92°W
Report Text: KDVT 281153Z 03005KT 10SM CLR 14/M07 A3004 RMK AO2 SLP156 T01441072 10194 20128 58009
Loading
Personal Weather Stations






























Interactive Weather Map New forecast layout! Learn more

10-Day Weather Forecast

Advertisements
Track Severe Weather on mobile